sensor_id;sensor_type;location;lat;lon;timestamp;P1;durP1;ratioP1;P2;durP2;ratioP2
40907;SDS011;51055;59.436;24.778;2024-02-26T00:00:16;10.55;;;6.30;;
40907;SDS011;51055;59.436;24.778;2024-02-26T00:02:44;8.77;;;6.03;;
40907;SDS011;51055;59.436;24.778;2024-02-26T00:05:12;8.88;;;6.10;;
40907;SDS011;51055;59.436;24.778;2024-02-26T00:07:39;9.68;;;6.50;;
40907;SDS011;51055;59.436;24.778;2024-02-26T00:10:07;9.40;;;6.55;;
40907;SDS011;51055;59.436;24.778;2024-02-26T00:12:35;10.00;;;6.88;;
40907;SDS011;51055;59.436;24.778;2024-02-26T00:15:02;10.27;;;6.57;;
40907;SDS011;51055;59.436;24.778;2024-02-26T00:17:30;9.55;;;6.07;;
40907;SDS011;51055;59.436;24.778;2024-02-26T00:19:58;9.85;;;6.38;;
40907;SDS011;51055;59.436;24.778;2024-02-26T00:22:26;8.10;;;5.47;;
40907;SDS011;51055;59.436;24.778;2024-02-26T00:24:53;9.70;;;6.53;;
40907;SDS011;51055;59.436;24.778;2024-02-26T00:27:20;10.20;;;7.13;;
40907;SDS011;51055;59.436;24.778;2024-02-26T00:29:48;8.90;;;6.22;;
40907;SDS011;51055;59.436;24.778;2024-02-26T00:32:16;8.57;;;5.70;;
40907;SDS011;51055;59.436;24.778;2024-02-26T00:34:43;13.05;;;6.68;;
40907;SDS011;51055;59.436;24.778;2024-02-26T00:37:11;9.82;;;6.32;;
40907;SDS011;51055;59.436;24.778;2024-02-26T00:39:38;11.60;;;6.32;;
40907;SDS011;51055;59.436;24.778;2024-02-26T00:42:06;9.55;;;6.20;;
40907;SDS011;51055;59.436;24.778;2024-02-26T00:44:34;9.93;;;6.27;;
40907;SDS011;51055;59.436;24.778;2024-02-26T00:47:02;9.20;;;6.18;;
40907;SDS011;51055;59.436;24.778;2024-02-26T00:49:29;10.75;;;6.30;;
40907;SDS011;51055;59.436;24.778;2024-02-26T00:51:57;9.20;;;6.03;;
40907;SDS011;51055;59.436;24.778;2024-02-26T00:54:24;9.90;;;6.03;;
40907;SDS011;51055;59.436;24.778;2024-02-26T00:56:52;10.05;;;6.38;;
40907;SDS011;51055;59.436;24.778;2024-02-26T00:59:19;10.30;;;6.57;;
40907;SDS011;51055;59.436;24.778;2024-02-26T01:01:47;9.98;;;6.75;;
40907;SDS011;51055;59.436;24.778;2024-02-26T01:04:15;9.25;;;5.85;;
40907;SDS011;51055;59.436;24.778;2024-02-26T01:06:42;9.90;;;6.78;;
40907;SDS011;51055;59.436;24.778;2024-02-26T01:09:10;11.10;;;6.97;;
40907;SDS011;51055;59.436;24.778;2024-02-26T01:11:37;10.57;;;6.47;;
40907;SDS011;51055;59.436;24.778;2024-02-26T01:14:05;11.60;;;6.75;;
40907;SDS011;51055;59.436;24.778;2024-02-26T01:16:33;10.00;;;6.40;;
40907;SDS011;51055;59.436;24.778;2024-02-26T01:19:01;12.82;;;6.68;;
40907;SDS011;51055;59.436;24.778;2024-02-26T01:21:28;10.50;;;6.72;;
40907;SDS011;51055;59.436;24.778;2024-02-26T01:23:57;9.93;;;6.10;;
40907;SDS011;51055;59.436;24.778;2024-02-26T01:26:24;9.88;;;5.88;;
40907;SDS011;51055;59.436;24.778;2024-02-26T01:28:52;9.77;;;6.45;;
40907;SDS011;51055;59.436;24.778;2024-02-26T01:31:19;11.70;;;6.13;;
40907;SDS011;51055;59.436;24.778;2024-02-26T01:33:47;10.50;;;6.05;;
40907;SDS011;51055;59.436;24.778;2024-02-26T01:36:15;9.27;;;6.05;;
40907;SDS011;51055;59.436;24.778;2024-02-26T01:38:42;9.48;;;5.47;;
40907;SDS011;51055;59.436;24.778;2024-02-26T01:41:10;8.98;;;5.55;;
40907;SDS011;51055;59.436;24.778;2024-02-26T01:43:38;10.02;;;6.00;;
40907;SDS011;51055;59.436;24.778;2024-02-26T01:46:05;10.85;;;5.93;;
40907;SDS011;51055;59.436;24.778;2024-02-26T01:48:33;11.30;;;6.03;;
40907;SDS011;51055;59.436;24.778;2024-02-26T01:51:00;10.35;;;5.82;;
40907;SDS011;51055;59.436;24.778;2024-02-26T01:53:28;9.82;;;6.00;;
40907;SDS011;51055;59.436;24.778;2024-02-26T01:55:56;10.77;;;6.13;;
40907;SDS011;51055;59.436;24.778;2024-02-26T01:58:23;11.25;;;6.35;;
40907;SDS011;51055;59.436;24.778;2024-02-26T02:00:50;10.23;;;6.00;;
40907;SDS011;51055;59.436;24.778;2024-02-26T02:03:18;11.35;;;6.72;;
40907;SDS011;51055;59.436;24.778;2024-02-26T02:05:46;9.52;;;5.90;;
40907;SDS011;51055;59.436;24.778;2024-02-26T02:08:13;11.13;;;6.68;;
40907;SDS011;51055;59.436;24.778;2024-02-26T02:10:44;11.82;;;7.80;;
40907;SDS011;51055;59.436;24.778;2024-02-26T02:13:11;14.68;;;6.20;;
40907;SDS011;51055;59.436;24.778;2024-02-26T02:15:39;11.48;;;6.60;;
40907;SDS011;51055;59.436;24.778;2024-02-26T02:18:07;12.05;;;7.28;;
40907;SDS011;51055;59.436;24.778;2024-02-26T02:20:34;12.20;;;7.30;;
40907;SDS011;51055;59.436;24.778;2024-02-26T02:23:02;12.43;;;7.20;;
40907;SDS011;51055;59.436;24.778;2024-02-26T02:25:29;14.32;;;8.00;;
40907;SDS011;51055;59.436;24.778;2024-02-26T02:27:57;14.35;;;8.48;;
40907;SDS011;51055;59.436;24.778;2024-02-26T02:30:25;12.18;;;7.13;;
40907;SDS011;51055;59.436;24.778;2024-02-26T02:32:54;12.20;;;7.03;;
40907;SDS011;51055;59.436;24.778;2024-02-26T02:35:22;12.38;;;7.28;;
40907;SDS011;51055;59.436;24.778;2024-02-26T02:37:53;13.02;;;7.80;;
40907;SDS011;51055;59.436;24.778;2024-02-26T02:40:20;13.27;;;7.03;;
40907;SDS011;51055;59.436;24.778;2024-02-26T02:42:48;12.52;;;7.10;;
40907;SDS011;51055;59.436;24.778;2024-02-26T02:45:15;12.02;;;7.38;;
40907;SDS011;51055;59.436;24.778;2024-02-26T02:47:43;11.55;;;7.13;;
40907;SDS011;51055;59.436;24.778;2024-02-26T02:50:10;12.65;;;7.20;;
40907;SDS011;51055;59.436;24.778;2024-02-26T02:52:38;11.52;;;6.70;;
40907;SDS011;51055;59.436;24.778;2024-02-26T02:55:05;12.07;;;7.47;;
40907;SDS011;51055;59.436;24.778;2024-02-26T02:57:33;12.95;;;7.30;;
40907;SDS011;51055;59.436;24.778;2024-02-26T03:00:01;12.45;;;7.07;;
40907;SDS011;51055;59.436;24.778;2024-02-26T03:02:31;11.65;;;7.40;;
40907;SDS011;51055;59.436;24.778;2024-02-26T03:04:58;11.27;;;7.10;;
40907;SDS011;51055;59.436;24.778;2024-02-26T03:07:26;12.23;;;7.00;;
40907;SDS011;51055;59.436;24.778;2024-02-26T03:09:53;11.52;;;7.15;;
40907;SDS011;51055;59.436;24.778;2024-02-26T03:12:21;13.02;;;7.50;;
40907;SDS011;51055;59.436;24.778;2024-02-26T03:14:48;13.23;;;7.78;;
40907;SDS011;51055;59.436;24.778;2024-02-26T03:17:16;11.07;;;6.85;;
40907;SDS011;51055;59.436;24.778;2024-02-26T03:19:44;12.80;;;8.13;;
40907;SDS011;51055;59.436;24.778;2024-02-26T03:22:14;12.27;;;6.72;;
40907;SDS011;51055;59.436;24.778;2024-02-26T03:24:41;11.07;;;6.63;;
40907;SDS011;51055;59.436;24.778;2024-02-26T03:27:09;12.07;;;7.72;;
40907;SDS011;51055;59.436;24.778;2024-02-26T03:29:37;12.20;;;7.43;;
40907;SDS011;51055;59.436;24.778;2024-02-26T03:32:05;12.20;;;7.22;;
40907;SDS011;51055;59.436;24.778;2024-02-26T03:34:32;12.35;;;7.78;;
40907;SDS011;51055;59.436;24.778;2024-02-26T03:37:03;12.48;;;7.80;;
40907;SDS011;51055;59.436;24.778;2024-02-26T03:39:30;12.25;;;7.18;;
40907;SDS011;51055;59.436;24.778;2024-02-26T03:41:58;12.57;;;7.57;;
40907;SDS011;51055;59.436;24.778;2024-02-26T03:44:25;13.20;;;7.50;;
40907;SDS011;51055;59.436;24.778;2024-02-26T03:46:53;13.00;;;7.80;;
40907;SDS011;51055;59.436;24.778;2024-02-26T03:49:20;13.45;;;7.90;;
40907;SDS011;51055;59.436;24.778;2024-02-26T03:51:48;13.23;;;7.55;;
40907;SDS011;51055;59.436;24.778;2024-02-26T03:54:15;14.13;;;8.15;;
40907;SDS011;51055;59.436;24.778;2024-02-26T03:56:43;13.52;;;7.90;;
40907;SDS011;51055;59.436;24.778;2024-02-26T03:59:10;14.30;;;8.73;;
40907;SDS011;51055;59.436;24.778;2024-02-26T04:01:37;18.85;;;10.02;;
40907;SDS011;51055;59.436;24.778;2024-02-26T04:04:05;18.38;;;10.55;;
40907;SDS011;51055;59.436;24.778;2024-02-26T04:06:33;17.73;;;9.77;;
40907;SDS011;51055;59.436;24.778;2024-02-26T04:09:01;21.45;;;10.80;;
40907;SDS011;51055;59.436;24.778;2024-02-26T04:11:31;16.67;;;10.35;;
40907;SDS011;51055;59.436;24.778;2024-02-26T04:13:59;21.88;;;10.70;;
40907;SDS011;51055;59.436;24.778;2024-02-26T04:16:26;17.48;;;10.32;;
40907;SDS011;51055;59.436;24.778;2024-02-26T04:18:53;20.45;;;11.07;;
40907;SDS011;51055;59.436;24.778;2024-02-26T04:21:21;26.08;;;12.25;;
40907;SDS011;51055;59.436;24.778;2024-02-26T04:23:49;21.80;;;10.95;;
40907;SDS011;51055;59.436;24.778;2024-02-26T04:26:16;20.52;;;11.60;;
40907;SDS011;51055;59.436;24.778;2024-02-26T04:28:44;26.08;;;13.23;;
40907;SDS011;51055;59.436;24.778;2024-02-26T04:31:11;24.02;;;13.07;;
40907;SDS011;51055;59.436;24.778;2024-02-26T04:33:39;19.50;;;12.02;;
40907;SDS011;51055;59.436;24.778;2024-02-26T04:36:11;20.60;;;11.45;;
40907;SDS011;51055;59.436;24.778;2024-02-26T04:38:39;21.20;;;11.10;;
40907;SDS011;51055;59.436;24.778;2024-02-26T04:41:06;18.48;;;11.18;;
40907;SDS011;51055;59.436;24.778;2024-02-26T04:43:35;20.65;;;10.50;;
40907;SDS011;51055;59.436;24.778;2024-02-26T04:46:08;18.17;;;9.98;;
40907;SDS011;51055;59.436;24.778;2024-02-26T04:48:36;22.50;;;11.48;;
40907;SDS011;51055;59.436;24.778;2024-02-26T04:51:04;20.33;;;10.82;;
40907;SDS011;51055;59.436;24.778;2024-02-26T04:53:31;18.67;;;10.68;;
40907;SDS011;51055;59.436;24.778;2024-02-26T04:55:59;19.60;;;10.98;;
40907;SDS011;51055;59.436;24.778;2024-02-26T04:58:26;19.02;;;9.75;;
40907;SDS011;51055;59.436;24.778;2024-02-26T05:00:54;18.77;;;9.73;;
40907;SDS011;51055;59.436;24.778;2024-02-26T05:03:21;17.50;;;9.73;;
40907;SDS011;51055;59.436;24.778;2024-02-26T05:05:49;17.92;;;10.07;;
40907;SDS011;51055;59.436;24.778;2024-02-26T05:08:17;19.83;;;10.63;;
40907;SDS011;51055;59.436;24.778;2024-02-26T05:10:45;21.85;;;10.65;;
40907;SDS011;51055;59.436;24.778;2024-02-26T05:13:12;18.17;;;10.43;;
40907;SDS011;51055;59.436;24.778;2024-02-26T05:15:42;17.35;;;10.52;;
40907;SDS011;51055;59.436;24.778;2024-02-26T05:18:09;16.27;;;10.48;;
40907;SDS011;51055;59.436;24.778;2024-02-26T05:20:37;20.77;;;11.50;;
40907;SDS011;51055;59.436;24.778;2024-02-26T05:23:05;18.92;;;10.30;;
40907;SDS011;51055;59.436;24.778;2024-02-26T05:25:32;18.98;;;10.88;;
40907;SDS011;51055;59.436;24.778;2024-02-26T05:28:00;17.58;;;9.95;;
40907;SDS011;51055;59.436;24.778;2024-02-26T05:30:28;20.40;;;11.50;;
40907;SDS011;51055;59.436;24.778;2024-02-26T05:32:56;20.15;;;10.50;;
40907;SDS011;51055;59.436;24.778;2024-02-26T05:35:24;18.10;;;10.32;;
40907;SDS011;51055;59.436;24.778;2024-02-26T05:37:53;18.20;;;10.40;;
40907;SDS011;51055;59.436;24.778;2024-02-26T05:40:21;13.00;;;8.03;;
40907;SDS011;51055;59.436;24.778;2024-02-26T05:42:48;22.63;;;11.60;;
40907;SDS011;51055;59.436;24.778;2024-02-26T05:45:16;20.60;;;10.52;;
40907;SDS011;51055;59.436;24.778;2024-02-26T05:47:44;20.60;;;10.15;;
40907;SDS011;51055;59.436;24.778;2024-02-26T05:50:12;22.13;;;11.15;;
40907;SDS011;51055;59.436;24.778;2024-02-26T05:52:39;21.98;;;11.30;;
40907;SDS011;51055;59.436;24.778;2024-02-26T05:55:07;18.20;;;11.05;;
40907;SDS011;51055;59.436;24.778;2024-02-26T05:57:35;19.90;;;10.20;;
40907;SDS011;51055;59.436;24.778;2024-02-26T06:00:03;19.45;;;10.05;;
40907;SDS011;51055;59.436;24.778;2024-02-26T06:02:31;12.35;;;7.35;;
40907;SDS011;51055;59.436;24.778;2024-02-26T06:04:59;15.45;;;8.82;;
40907;SDS011;51055;59.436;24.778;2024-02-26T06:07:26;17.83;;;9.60;;
40907;SDS011;51055;59.436;24.778;2024-02-26T06:09:54;15.95;;;8.48;;
40907;SDS011;51055;59.436;24.778;2024-02-26T06:12:21;15.98;;;8.43;;
40907;SDS011;51055;59.436;24.778;2024-02-26T06:14:49;15.90;;;8.57;;
40907;SDS011;51055;59.436;24.778;2024-02-26T06:17:16;16.58;;;8.52;;
40907;SDS011;51055;59.436;24.778;2024-02-26T06:19:44;17.08;;;9.00;;
40907;SDS011;51055;59.436;24.778;2024-02-26T06:22:11;15.02;;;8.38;;
40907;SDS011;51055;59.436;24.778;2024-02-26T06:24:39;16.02;;;9.15;;
40907;SDS011;51055;59.436;24.778;2024-02-26T06:27:06;14.15;;;8.32;;
40907;SDS011;51055;59.436;24.778;2024-02-26T06:29:34;14.75;;;8.18;;
40907;SDS011;51055;59.436;24.778;2024-02-26T06:32:02;16.38;;;8.63;;
40907;SDS011;51055;59.436;24.778;2024-02-26T06:34:29;17.42;;;9.80;;
40907;SDS011;51055;59.436;24.778;2024-02-26T06:36:57;16.73;;;9.68;;
40907;SDS011;51055;59.436;24.778;2024-02-26T06:39:24;15.52;;;8.18;;
40907;SDS011;51055;59.436;24.778;2024-02-26T06:41:52;20.55;;;10.02;;
40907;SDS011;51055;59.436;24.778;2024-02-26T06:44:27;21.50;;;12.90;;
40907;SDS011;51055;59.436;24.778;2024-02-26T06:46:59;19.38;;;9.68;;
40907;SDS011;51055;59.436;24.778;2024-02-26T06:49:27;15.32;;;8.02;;
40907;SDS011;51055;59.436;24.778;2024-02-26T06:51:55;12.98;;;7.28;;
40907;SDS011;51055;59.436;24.778;2024-02-26T06:54:23;15.25;;;8.68;;
40907;SDS011;51055;59.436;24.778;2024-02-26T06:56:50;16.17;;;9.10;;
40907;SDS011;51055;59.436;24.778;2024-02-26T06:59:18;16.05;;;8.80;;
40907;SDS011;51055;59.436;24.778;2024-02-26T07:01:47;14.60;;;8.48;;
40907;SDS011;51055;59.436;24.778;2024-02-26T07:04:14;16.55;;;9.43;;
40907;SDS011;51055;59.436;24.778;2024-02-26T07:06:42;13.90;;;8.07;;
40907;SDS011;51055;59.436;24.778;2024-02-26T07:09:11;15.68;;;8.45;;
40907;SDS011;51055;59.436;24.778;2024-02-26T07:11:40;17.00;;;8.00;;
40907;SDS011;51055;59.436;24.778;2024-02-26T07:14:11;13.50;;;8.00;;
40907;SDS011;51055;59.436;24.778;2024-02-26T07:16:39;9.60;;;5.47;;
40907;SDS011;51055;59.436;24.778;2024-02-26T07:19:06;14.30;;;7.13;;
40907;SDS011;51055;59.436;24.778;2024-02-26T07:21:34;9.60;;;5.43;;
40907;SDS011;51055;59.436;24.778;2024-02-26T07:24:02;13.10;;;7.00;;
40907;SDS011;51055;59.436;24.778;2024-02-26T07:26:29;16.05;;;6.85;;
40907;SDS011;51055;59.436;24.778;2024-02-26T07:28:58;13.65;;;7.50;;
40907;SDS011;51055;59.436;24.778;2024-02-26T07:31:25;13.27;;;6.65;;
40907;SDS011;51055;59.436;24.778;2024-02-26T07:33:53;14.27;;;7.72;;
40907;SDS011;51055;59.436;24.778;2024-02-26T07:36:21;14.50;;;7.85;;
40907;SDS011;51055;59.436;24.778;2024-02-26T07:38:48;15.35;;;7.65;;
40907;SDS011;51055;59.436;24.778;2024-02-26T07:41:16;11.03;;;6.07;;
40907;SDS011;51055;59.436;24.778;2024-02-26T07:43:44;17.48;;;8.80;;
40907;SDS011;51055;59.436;24.778;2024-02-26T07:46:11;15.32;;;7.82;;
40907;SDS011;51055;59.436;24.778;2024-02-26T07:48:39;12.10;;;6.20;;
40907;SDS011;51055;59.436;24.778;2024-02-26T07:51:08;20.83;;;10.80;;
40907;SDS011;51055;59.436;24.778;2024-02-26T07:53:36;25.83;;;14.18;;
40907;SDS011;51055;59.436;24.778;2024-02-26T07:56:03;18.63;;;9.57;;
40907;SDS011;51055;59.436;24.778;2024-02-26T07:58:34;28.95;;;16.60;;
40907;SDS011;51055;59.436;24.778;2024-02-26T08:01:01;20.15;;;12.02;;
40907;SDS011;51055;59.436;24.778;2024-02-26T08:03:29;16.27;;;10.10;;
40907;SDS011;51055;59.436;24.778;2024-02-26T08:05:56;13.55;;;8.40;;
40907;SDS011;51055;59.436;24.778;2024-02-26T08:08:24;12.40;;;6.95;;
40907;SDS011;51055;59.436;24.778;2024-02-26T08:10:52;13.73;;;6.88;;
40907;SDS011;51055;59.436;24.778;2024-02-26T08:13:19;12.25;;;6.45;;
40907;SDS011;51055;59.436;24.778;2024-02-26T08:15:47;11.52;;;6.30;;
40907;SDS011;51055;59.436;24.778;2024-02-26T08:18:14;12.90;;;6.43;;
40907;SDS011;51055;59.436;24.778;2024-02-26T08:20:43;11.60;;;6.30;;
40907;SDS011;51055;59.436;24.778;2024-02-26T08:23:11;15.30;;;7.45;;
40907;SDS011;51055;59.436;24.778;2024-02-26T08:25:38;15.30;;;7.28;;
40907;SDS011;51055;59.436;24.778;2024-02-26T08:28:06;18.08;;;8.48;;
40907;SDS011;51055;59.436;24.778;2024-02-26T08:30:34;14.73;;;8.40;;
40907;SDS011;51055;59.436;24.778;2024-02-26T08:33:01;16.05;;;8.48;;
40907;SDS011;51055;59.436;24.778;2024-02-26T08:35:29;14.52;;;8.32;;
40907;SDS011;51055;59.436;24.778;2024-02-26T08:37:57;21.70;;;8.77;;
40907;SDS011;51055;59.436;24.778;2024-02-26T08:40:24;15.10;;;7.75;;
40907;SDS011;51055;59.436;24.778;2024-02-26T08:42:51;16.15;;;9.25;;
40907;SDS011;51055;59.436;24.778;2024-02-26T08:45:19;16.33;;;8.77;;
40907;SDS011;51055;59.436;24.778;2024-02-26T08:47:46;16.17;;;9.32;;
40907;SDS011;51055;59.436;24.778;2024-02-26T08:50:14;15.07;;;8.20;;
40907;SDS011;51055;59.436;24.778;2024-02-26T08:52:42;15.00;;;9.07;;
40907;SDS011;51055;59.436;24.778;2024-02-26T08:55:09;17.42;;;8.25;;
40907;SDS011;51055;59.436;24.778;2024-02-26T08:57:37;17.70;;;8.45;;
40907;SDS011;51055;59.436;24.778;2024-02-26T09:00:05;16.23;;;9.15;;
40907;SDS011;51055;59.436;24.778;2024-02-26T09:02:33;16.67;;;9.25;;
40907;SDS011;51055;59.436;24.778;2024-02-26T09:05:01;14.98;;;8.02;;
40907;SDS011;51055;59.436;24.778;2024-02-26T09:07:28;16.15;;;9.25;;
40907;SDS011;51055;59.436;24.778;2024-02-26T09:09:56;15.13;;;7.68;;
40907;SDS011;51055;59.436;24.778;2024-02-26T09:12:24;13.80;;;8.13;;
40907;SDS011;51055;59.436;24.778;2024-02-26T09:14:51;16.15;;;7.82;;
40907;SDS011;51055;59.436;24.778;2024-02-26T09:17:19;14.18;;;7.90;;
40907;SDS011;51055;59.436;24.778;2024-02-26T09:19:46;13.15;;;7.72;;
40907;SDS011;51055;59.436;24.778;2024-02-26T09:22:14;14.25;;;7.70;;
40907;SDS011;51055;59.436;24.778;2024-02-26T09:24:45;16.52;;;8.38;;
40907;SDS011;51055;59.436;24.778;2024-02-26T09:27:12;15.52;;;8.00;;
40907;SDS011;51055;59.436;24.778;2024-02-26T09:29:39;14.88;;;8.02;;
40907;SDS011;51055;59.436;24.778;2024-02-26T09:32:07;12.18;;;8.02;;
40907;SDS011;51055;59.436;24.778;2024-02-26T09:34:34;13.13;;;7.57;;
40907;SDS011;51055;59.436;24.778;2024-02-26T09:37:02;13.57;;;7.50;;
40907;SDS011;51055;59.436;24.778;2024-02-26T09:39:41;11.93;;;7.00;;
40907;SDS011;51055;59.436;24.778;2024-02-26T09:42:09;11.55;;;6.53;;
40907;SDS011;51055;59.436;24.778;2024-02-26T09:44:38;12.13;;;5.97;;
40907;SDS011;51055;59.436;24.778;2024-02-26T09:47:07;11.70;;;6.53;;
40907;SDS011;51055;59.436;24.778;2024-02-26T09:49:36;11.00;;;6.30;;
40907;SDS011;51055;59.436;24.778;2024-02-26T09:52:04;10.35;;;5.40;;
40907;SDS011;51055;59.436;24.778;2024-02-26T09:54:32;8.43;;;4.70;;
40907;SDS011;51055;59.436;24.778;2024-02-26T09:57:01;9.38;;;5.18;;
40907;SDS011;51055;59.436;24.778;2024-02-26T09:59:36;11.20;;;6.47;;
40907;SDS011;51055;59.436;24.778;2024-02-26T10:02:13;11.57;;;7.10;;
40907;SDS011;51055;59.436;24.778;2024-02-26T10:04:41;12.30;;;6.80;;
40907;SDS011;51055;59.436;24.778;2024-02-26T10:07:15;10.68;;;6.68;;
40907;SDS011;51055;59.436;24.778;2024-02-26T10:09:43;7.15;;;4.43;;
40907;SDS011;51055;59.436;24.778;2024-02-26T10:12:11;8.95;;;5.32;;
40907;SDS011;51055;59.436;24.778;2024-02-26T10:14:43;10.25;;;5.05;;
40907;SDS011;51055;59.436;24.778;2024-02-26T10:17:10;9.25;;;4.80;;
40907;SDS011;51055;59.436;24.778;2024-02-26T10:19:38;11.50;;;4.97;;
40907;SDS011;51055;59.436;24.778;2024-02-26T10:22:06;12.13;;;6.03;;
40907;SDS011;51055;59.436;24.778;2024-02-26T10:24:34;13.65;;;6.68;;
40907;SDS011;51055;59.436;24.778;2024-02-26T10:27:02;9.30;;;5.63;;
40907;SDS011;51055;59.436;24.778;2024-02-26T10:29:30;12.77;;;5.35;;
40907;SDS011;51055;59.436;24.778;2024-02-26T10:31:58;11.90;;;5.90;;
40907;SDS011;51055;59.436;24.778;2024-02-26T10:34:25;9.00;;;5.03;;
40907;SDS011;51055;59.436;24.778;2024-02-26T10:36:53;8.27;;;3.77;;
40907;SDS011;51055;59.436;24.778;2024-02-26T10:39:21;11.55;;;5.85;;
40907;SDS011;51055;59.436;24.778;2024-02-26T10:41:49;9.10;;;5.20;;
40907;SDS011;51055;59.436;24.778;2024-02-26T10:44:17;10.75;;;5.53;;
40907;SDS011;51055;59.436;24.778;2024-02-26T10:46:46;8.73;;;5.10;;
40907;SDS011;51055;59.436;24.778;2024-02-26T10:49:14;10.55;;;6.03;;
40907;SDS011;51055;59.436;24.778;2024-02-26T10:51:51;9.50;;;5.03;;
40907;SDS011;51055;59.436;24.778;2024-02-26T10:54:20;10.00;;;5.55;;
40907;SDS011;51055;59.436;24.778;2024-02-26T10:56:48;6.75;;;3.80;;
40907;SDS011;51055;59.436;24.778;2024-02-26T10:59:17;11.63;;;6.28;;
40907;SDS011;51055;59.436;24.778;2024-02-26T11:01:48;8.98;;;5.30;;
40907;SDS011;51055;59.436;24.778;2024-02-26T11:04:17;10.65;;;5.93;;
40907;SDS011;51055;59.436;24.778;2024-02-26T11:06:45;11.93;;;6.15;;
40907;SDS011;51055;59.436;24.778;2024-02-26T11:09:14;9.37;;;4.43;;
40907;SDS011;51055;59.436;24.778;2024-02-26T11:11:42;12.00;;;6.05;;
40907;SDS011;51055;59.436;24.778;2024-02-26T11:14:10;10.88;;;5.80;;
40907;SDS011;51055;59.436;24.778;2024-02-26T11:16:38;8.43;;;5.30;;
40907;SDS011;51055;59.436;24.778;2024-02-26T11:19:08;7.97;;;4.03;;
40907;SDS011;51055;59.436;24.778;2024-02-26T11:21:37;8.80;;;5.07;;
40907;SDS011;51055;59.436;24.778;2024-02-26T11:24:09;9.52;;;5.60;;
40907;SDS011;51055;59.436;24.778;2024-02-26T11:26:45;9.80;;;6.00;;
40907;SDS011;51055;59.436;24.778;2024-02-26T11:29:16;10.43;;;5.85;;
40907;SDS011;51055;59.436;24.778;2024-02-26T11:31:44;9.02;;;5.80;;
40907;SDS011;51055;59.436;24.778;2024-02-26T11:34:12;8.57;;;5.53;;
40907;SDS011;51055;59.436;24.778;2024-02-26T11:36:41;9.98;;;5.05;;
40907;SDS011;51055;59.436;24.778;2024-02-26T11:39:11;10.48;;;6.20;;
40907;SDS011;51055;59.436;24.778;2024-02-26T11:41:40;10.43;;;5.80;;
40907;SDS011;51055;59.436;24.778;2024-02-26T11:44:07;10.65;;;6.10;;
40907;SDS011;51055;59.436;24.778;2024-02-26T11:46:41;9.85;;;5.82;;
40907;SDS011;51055;59.436;24.778;2024-02-26T11:51:56;11.23;;;6.22;;
40907;SDS011;51055;59.436;24.778;2024-02-26T11:54:38;12.07;;;6.28;;
40907;SDS011;51055;59.436;24.778;2024-02-26T11:57:19;12.50;;;6.72;;
40907;SDS011;51055;59.436;24.778;2024-02-26T11:59:47;10.75;;;6.40;;
40907;SDS011;51055;59.436;24.778;2024-02-26T12:05:00;10.45;;;6.30;;
40907;SDS011;51055;59.436;24.778;2024-02-26T12:07:29;10.90;;;6.47;;
40907;SDS011;51055;59.436;24.778;2024-02-26T12:10:13;12.23;;;6.80;;
40907;SDS011;51055;59.436;24.778;2024-02-26T12:12:41;10.68;;;6.18;;
40907;SDS011;51055;59.436;24.778;2024-02-26T12:15:08;10.20;;;6.18;;
40907;SDS011;51055;59.436;24.778;2024-02-26T12:17:38;11.82;;;6.32;;
40907;SDS011;51055;59.436;24.778;2024-02-26T12:20:09;11.10;;;6.10;;
40907;SDS011;51055;59.436;24.778;2024-02-26T12:22:39;9.63;;;5.82;;
40907;SDS011;51055;59.436;24.778;2024-02-26T12:25:09;9.98;;;6.22;;
40907;SDS011;51055;59.436;24.778;2024-02-26T12:27:36;9.77;;;5.57;;
40907;SDS011;51055;59.436;24.778;2024-02-26T12:30:04;9.80;;;5.82;;
40907;SDS011;51055;59.436;24.778;2024-02-26T12:32:34;9.40;;;6.07;;
40907;SDS011;51055;59.436;24.778;2024-02-26T12:35:02;7.65;;;4.57;;
40907;SDS011;51055;59.436;24.778;2024-02-26T12:37:30;10.35;;;5.75;;
40907;SDS011;51055;59.436;24.778;2024-02-26T12:39:57;10.80;;;6.13;;
40907;SDS011;51055;59.436;24.778;2024-02-26T12:42:25;9.38;;;5.80;;
40907;SDS011;51055;59.436;24.778;2024-02-26T12:44:53;9.50;;;6.03;;
40907;SDS011;51055;59.436;24.778;2024-02-26T12:47:21;10.63;;;6.03;;
40907;SDS011;51055;59.436;24.778;2024-02-26T12:49:48;9.98;;;6.15;;
40907;SDS011;51055;59.436;24.778;2024-02-26T12:52:16;9.75;;;5.70;;
40907;SDS011;51055;59.436;24.778;2024-02-26T12:54:44;11.98;;;6.45;;
40907;SDS011;51055;59.436;24.778;2024-02-26T12:57:11;9.55;;;5.32;;
40907;SDS011;51055;59.436;24.778;2024-02-26T12:59:39;10.90;;;6.30;;
40907;SDS011;51055;59.436;24.778;2024-02-26T13:02:07;9.73;;;5.80;;
40907;SDS011;51055;59.436;24.778;2024-02-26T13:04:34;11.13;;;5.88;;
40907;SDS011;51055;59.436;24.778;2024-02-26T13:07:03;9.95;;;6.35;;
40907;SDS011;51055;59.436;24.778;2024-02-26T13:09:33;10.75;;;6.28;;
40907;SDS011;51055;59.436;24.778;2024-02-26T13:12:05;9.85;;;6.35;;
40907;SDS011;51055;59.436;24.778;2024-02-26T13:14:33;10.93;;;6.15;;
40907;SDS011;51055;59.436;24.778;2024-02-26T13:17:02;11.57;;;7.17;;
40907;SDS011;51055;59.436;24.778;2024-02-26T13:19:30;11.90;;;7.32;;
40907;SDS011;51055;59.436;24.778;2024-02-26T13:22:04;10.93;;;6.55;;
40907;SDS011;51055;59.436;24.778;2024-02-26T13:24:34;12.02;;;7.35;;
40907;SDS011;51055;59.436;24.778;2024-02-26T13:27:02;13.88;;;7.72;;
40907;SDS011;51055;59.436;24.778;2024-02-26T13:29:32;12.80;;;6.93;;
40907;SDS011;51055;59.436;24.778;2024-02-26T13:32:00;11.00;;;6.25;;
40907;SDS011;51055;59.436;24.778;2024-02-26T13:34:28;10.23;;;6.22;;
40907;SDS011;51055;59.436;24.778;2024-02-26T13:36:56;10.57;;;6.32;;
40907;SDS011;51055;59.436;24.778;2024-02-26T13:39:24;10.30;;;6.45;;
40907;SDS011;51055;59.436;24.778;2024-02-26T13:41:52;10.93;;;6.90;;
40907;SDS011;51055;59.436;24.778;2024-02-26T13:44:20;9.47;;;5.97;;
40907;SDS011;51055;59.436;24.778;2024-02-26T13:46:48;11.40;;;6.65;;
40907;SDS011;51055;59.436;24.778;2024-02-26T13:49:16;10.52;;;5.63;;
40907;SDS011;51055;59.436;24.778;2024-02-26T13:51:44;12.27;;;7.70;;
40907;SDS011;51055;59.436;24.778;2024-02-26T13:54:12;9.60;;;6.40;;
40907;SDS011;51055;59.436;24.778;2024-02-26T13:56:41;11.73;;;6.28;;
40907;SDS011;51055;59.436;24.778;2024-02-26T13:59:12;11.32;;;6.85;;
40907;SDS011;51055;59.436;24.778;2024-02-26T14:01:40;10.90;;;6.10;;
40907;SDS011;51055;59.436;24.778;2024-02-26T14:04:07;10.90;;;6.50;;
40907;SDS011;51055;59.436;24.778;2024-02-26T14:09:04;11.25;;;6.30;;
40907;SDS011;51055;59.436;24.778;2024-02-26T14:11:32;10.13;;;6.10;;
40907;SDS011;51055;59.436;24.778;2024-02-26T14:13:59;10.13;;;6.30;;
40907;SDS011;51055;59.436;24.778;2024-02-26T14:16:26;10.55;;;6.20;;
40907;SDS011;51055;59.436;24.778;2024-02-26T14:18:58;13.02;;;7.15;;
40907;SDS011;51055;59.436;24.778;2024-02-26T14:21:26;11.57;;;6.72;;
40907;SDS011;51055;59.436;24.778;2024-02-26T14:23:55;11.23;;;6.93;;
40907;SDS011;51055;59.436;24.778;2024-02-26T14:26:23;10.77;;;6.20;;
40907;SDS011;51055;59.436;24.778;2024-02-26T14:28:50;10.88;;;6.45;;
40907;SDS011;51055;59.436;24.778;2024-02-26T14:31:18;11.60;;;7.20;;
40907;SDS011;51055;59.436;24.778;2024-02-26T14:33:45;11.75;;;6.80;;
40907;SDS011;51055;59.436;24.778;2024-02-26T14:36:14;12.13;;;6.47;;